sensor_id;sensor_type;location;lat;lon;timestamp;temperature;humidity
31675;DHT22;18276;45.520;11.018;2023-04-12T00:01:42;14.10;72.40
31675;DHT22;18276;45.520;11.018;2023-04-12T00:04:09;14.00;72.40
31675;DHT22;18276;45.520;11.018;2023-04-12T00:06:36;14.00;72.40
31675;DHT22;18276;45.520;11.018;2023-04-12T00:09:03;14.00;72.40
31675;DHT22;18276;45.520;11.018;2023-04-12T00:11:30;14.00;72.40
31675;DHT22;18276;45.520;11.018;2023-04-12T00:13:57;13.90;72.40
31675;DHT22;18276;45.520;11.018;2023-04-12T00:16:24;14.00;72.50
31675;DHT22;18276;45.520;11.018;2023-04-12T00:18:51;14.00;72.60
31675;DHT22;18276;45.520;11.018;2023-04-12T00:21:18;14.00;72.50
31675;DHT22;18276;45.520;11.018;2023-04-12T00:23:45;14.00;72.70
31675;DHT22;18276;45.520;11.018;2023-04-12T00:26:13;14.00;72.60
31675;DHT22;18276;45.520;11.018;2023-04-12T00:28:41;14.00;72.70
31675;DHT22;18276;45.520;11.018;2023-04-12T00:31:08;14.00;72.70
31675;DHT22;18276;45.520;11.018;2023-04-12T00:33:35;14.10;72.80
31675;DHT22;18276;45.520;11.018;2023-04-12T00:36:05;14.10;72.80
31675;DHT22;18276;45.520;11.018;2023-04-12T00:38:33;14.10;72.70
31675;DHT22;18276;45.520;11.018;2023-04-12T00:41:02;14.10;72.70
31675;DHT22;18276;45.520;11.018;2023-04-12T00:43:29;14.10;72.70
31675;DHT22;18276;45.520;11.018;2023-04-12T00:45:56;14.10;72.80
31675;DHT22;18276;45.520;11.018;2023-04-12T00:48:25;14.10;72.80
31675;DHT22;18276;45.520;11.018;2023-04-12T00:50:53;14.10;72.80
31675;DHT22;18276;45.520;11.018;2023-04-12T00:53:21;14.10;72.80
31675;DHT22;18276;45.520;11.018;2023-04-12T00:55:51;14.10;72.90
31675;DHT22;18276;45.520;11.018;2023-04-12T00:58:21;14.10;73.10
31675;DHT22;18276;45.520;11.018;2023-04-12T01:00:49;14.10;73.10
31675;DHT22;18276;45.520;11.018;2023-04-12T01:03:19;14.10;73.10
31675;DHT22;18276;45.520;11.018;2023-04-12T01:05:51;14.10;73.30
31675;DHT22;18276;45.520;11.018;2023-04-12T01:08:37;14.10;73.20
31675;DHT22;18276;45.520;11.018;2023-04-12T01:11:12;14.10;73.10
31675;DHT22;18276;45.520;11.018;2023-04-12T01:14:27;14.20;73.20
31675;DHT22;18276;45.520;11.018;2023-04-12T01:16:43;14.20;73.20
31675;DHT22;18276;45.520;11.018;2023-04-12T01:19:18;14.20;73.10
31675;DHT22;18276;45.520;11.018;2023-04-12T01:21:53;14.10;73.20
31675;DHT22;18276;45.520;11.018;2023-04-12T01:27:27;14.10;73.40
31675;DHT22;18276;45.520;11.018;2023-04-12T01:29:55;14.10;73.40
31675;DHT22;18276;45.520;11.018;2023-04-12T01:32:24;14.10;73.40
31675;DHT22;18276;45.520;11.018;2023-04-12T01:34:52;14.10;73.60
31675;DHT22;18276;45.520;11.018;2023-04-12T01:37:20;14.10;73.90
31675;DHT22;18276;45.520;11.018;2023-04-12T01:39:47;14.00;74.00
31675;DHT22;18276;45.520;11.018;2023-04-12T01:42:18;14.00;74.10
31675;DHT22;18276;45.520;11.018;2023-04-12T01:44:46;14.00;74.20
31675;DHT22;18276;45.520;11.018;2023-04-12T01:47:13;14.00;74.20
31675;DHT22;18276;45.520;11.018;2023-04-12T01:50:02;13.90;74.00
31675;DHT22;18276;45.520;11.018;2023-04-12T01:52:35;13.90;74.00
31675;DHT22;18276;45.520;11.018;2023-04-12T01:55:04;13.90;74.10
31675;DHT22;18276;45.520;11.018;2023-04-12T01:57:32;13.90;74.10
31675;DHT22;18276;45.520;11.018;2023-04-12T01:59:58;13.90;74.20
31675;DHT22;18276;45.520;11.018;2023-04-12T02:02:28;14.00;74.20
31675;DHT22;18276;45.520;11.018;2023-04-12T02:04:58;14.00;74.20
31675;DHT22;18276;45.520;11.018;2023-04-12T02:07:25;14.00;74.10
31675;DHT22;18276;45.520;11.018;2023-04-12T02:09:52;14.10;74.00
31675;DHT22;18276;45.520;11.018;2023-04-12T02:12:21;14.10;74.00
31675;DHT22;18276;45.520;11.018;2023-04-12T02:14:47;14.10;74.10
31675;DHT22;18276;45.520;11.018;2023-04-12T02:17:17;14.00;74.10
31675;DHT22;18276;45.520;11.018;2023-04-12T02:19:45;14.00;74.20
31675;DHT22;18276;45.520;11.018;2023-04-12T02:22:13;14.00;74.20
31675;DHT22;18276;45.520;11.018;2023-04-12T02:24:41;14.00;74.20
31675;DHT22;18276;45.520;11.018;2023-04-12T02:27:08;14.00;75.10
31675;DHT22;18276;45.520;11.018;2023-04-12T02:29:36;14.00;74.40
31675;DHT22;18276;45.520;11.018;2023-04-12T02:32:03;14.00;74.60
31675;DHT22;18276;45.520;11.018;2023-04-12T02:34:31;14.00;74.60
31675;DHT22;18276;45.520;11.018;2023-04-12T02:37:09;14.00;74.70
31675;DHT22;18276;45.520;11.018;2023-04-12T02:39:39;14.00;74.60
31675;DHT22;18276;45.520;11.018;2023-04-12T02:42:07;14.00;74.50
31675;DHT22;18276;45.520;11.018;2023-04-12T02:44:35;14.00;74.50
31675;DHT22;18276;45.520;11.018;2023-04-12T02:47:10;14.00;74.70
31675;DHT22;18276;45.520;11.018;2023-04-12T02:49:38;14.00;74.60
31675;DHT22;18276;45.520;11.018;2023-04-12T02:52:06;14.00;74.60
31675;DHT22;18276;45.520;11.018;2023-04-12T02:54:41;14.00;74.60
31675;DHT22;18276;45.520;11.018;2023-04-12T02:57:13;14.00;74.70
31675;DHT22;18276;45.520;11.018;2023-04-12T02:59:44;14.00;74.60
31675;DHT22;18276;45.520;11.018;2023-04-12T03:02:18;14.00;74.60
31675;DHT22;18276;45.520;11.018;2023-04-12T03:04:46;14.00;74.70
31675;DHT22;18276;45.520;11.018;2023-04-12T03:07:20;14.00;74.80
31675;DHT22;18276;45.520;11.018;2023-04-12T03:09:50;14.00;74.80
31675;DHT22;18276;45.520;11.018;2023-04-12T03:12:19;14.10;74.90
31675;DHT22;18276;45.520;11.018;2023-04-12T03:15:07;14.10;75.00
31675;DHT22;18276;45.520;11.018;2023-04-12T03:17:35;14.10;75.00
31675;DHT22;18276;45.520;11.018;2023-04-12T03:20:03;14.10;74.90
31675;DHT22;18276;45.520;11.018;2023-04-12T03:22:33;14.00;74.80
31675;DHT22;18276;45.520;11.018;2023-04-12T03:25:04;14.00;74.80
31675;DHT22;18276;45.520;11.018;2023-04-12T03:27:32;14.10;74.80
31675;DHT22;18276;45.520;11.018;2023-04-12T03:29:59;14.10;74.80
31675;DHT22;18276;45.520;11.018;2023-04-12T03:32:32;14.10;74.80
31675;DHT22;18276;45.520;11.018;2023-04-12T03:34:59;14.10;74.90
31675;DHT22;18276;45.520;11.018;2023-04-12T03:37:28;14.10;74.90
31675;DHT22;18276;45.520;11.018;2023-04-12T03:39:56;14.10;74.90
31675;DHT22;18276;45.520;11.018;2023-04-12T03:42:25;14.10;75.00
31675;DHT22;18276;45.520;11.018;2023-04-12T03:45:08;14.10;75.00
31675;DHT22;18276;45.520;11.018;2023-04-12T03:47:36;14.10;74.90
31675;DHT22;18276;45.520;11.018;2023-04-12T03:50:05;14.10;74.90
31675;DHT22;18276;45.520;11.018;2023-04-12T03:52:41;14.20;75.00
31675;DHT22;18276;45.520;11.018;2023-04-12T03:55:08;14.10;75.00
31675;DHT22;18276;45.520;11.018;2023-04-12T03:57:36;14.10;74.90
31675;DHT22;18276;45.520;11.018;2023-04-12T04:00:05;14.10;74.90
31675;DHT22;18276;45.520;11.018;2023-04-12T04:02:53;14.10;74.90
31675;DHT22;18276;45.520;11.018;2023-04-12T04:05:21;14.10;74.90
31675;DHT22;18276;45.520;11.018;2023-04-12T04:07:48;14.10;74.90
31675;DHT22;18276;45.520;11.018;2023-04-12T04:10:15;14.10;74.60
31675;DHT22;18276;45.520;11.018;2023-04-12T04:12:44;14.10;74.30
31675;DHT22;18276;45.520;11.018;2023-04-12T04:15:12;14.10;74.40
31675;DHT22;18276;45.520;11.018;2023-04-12T04:17:40;14.10;74.60
31675;DHT22;18276;45.520;11.018;2023-04-12T04:20:10;14.00;74.60
31675;DHT22;18276;45.520;11.018;2023-04-12T04:22:43;14.10;74.80
31675;DHT22;18276;45.520;11.018;2023-04-12T04:25:10;14.00;74.70
31675;DHT22;18276;45.520;11.018;2023-04-12T04:27:43;14.00;74.80
31675;DHT22;18276;45.520;11.018;2023-04-12T04:30:13;14.00;74.90
31675;DHT22;18276;45.520;11.018;2023-04-12T04:32:46;14.00;75.00
31675;DHT22;18276;45.520;11.018;2023-04-12T04:35:15;14.00;75.20
31675;DHT22;18276;45.520;11.018;2023-04-12T04:37:58;14.00;75.20
31675;DHT22;18276;45.520;11.018;2023-04-12T04:40:27;14.00;75.40
31675;DHT22;18276;45.520;11.018;2023-04-12T04:42:55;14.00;74.70
31675;DHT22;18276;45.520;11.018;2023-04-12T04:45:43;14.00;74.50
31675;DHT22;18276;45.520;11.018;2023-04-12T04:48:11;14.00;74.40
31675;DHT22;18276;45.520;11.018;2023-04-12T04:50:38;14.00;75.10
31675;DHT22;18276;45.520;11.018;2023-04-12T04:53:05;13.90;74.60
31675;DHT22;18276;45.520;11.018;2023-04-12T04:55:32;13.90;74.60
31675;DHT22;18276;45.520;11.018;2023-04-12T04:57:59;13.90;74.30
31675;DHT22;18276;45.520;11.018;2023-04-12T05:00:26;13.90;74.00
31675;DHT22;18276;45.520;11.018;2023-04-12T05:02:56;13.90;73.70
31675;DHT22;18276;45.520;11.018;2023-04-12T05:05:26;14.00;73.70
31675;DHT22;18276;45.520;11.018;2023-04-12T05:08:05;14.00;73.30
31675;DHT22;18276;45.520;11.018;2023-04-12T05:10:34;14.00;73.00
31675;DHT22;18276;45.520;11.018;2023-04-12T05:13:01;14.10;72.80
31675;DHT22;18276;45.520;11.018;2023-04-12T05:15:29;14.10;72.00
31675;DHT22;18276;45.520;11.018;2023-04-12T05:17:58;14.10;71.40
31675;DHT22;18276;45.520;11.018;2023-04-12T05:20:25;14.10;71.00
31675;DHT22;18276;45.520;11.018;2023-04-12T05:22:55;14.10;69.00
31675;DHT22;18276;45.520;11.018;2023-04-12T05:25:22;14.20;67.90
31675;DHT22;18276;45.520;11.018;2023-04-12T05:27:56;14.30;66.50
31675;DHT22;18276;45.520;11.018;2023-04-12T05:30:23;14.30;65.90
31675;DHT22;18276;45.520;11.018;2023-04-12T05:32:51;14.40;65.00
31675;DHT22;18276;45.520;11.018;2023-04-12T05:35:19;14.50;64.30
31675;DHT22;18276;45.520;11.018;2023-04-12T05:37:47;14.50;64.40
31675;DHT22;18276;45.520;11.018;2023-04-12T05:40:14;14.60;64.70
31675;DHT22;18276;45.520;11.018;2023-04-12T05:42:41;14.60;64.70
31675;DHT22;18276;45.520;11.018;2023-04-12T05:45:09;14.70;63.80
31675;DHT22;18276;45.520;11.018;2023-04-12T05:47:37;14.70;62.30
31675;DHT22;18276;45.520;11.018;2023-04-12T05:50:04;14.70;61.50
31675;DHT22;18276;45.520;11.018;2023-04-12T05:52:33;14.80;60.30
31675;DHT22;18276;45.520;11.018;2023-04-12T05:55:00;14.90;60.60
31675;DHT22;18276;45.520;11.018;2023-04-12T05:57:29;15.00;60.20
31675;DHT22;18276;45.520;11.018;2023-04-12T05:59:57;15.00;59.00
31675;DHT22;18276;45.520;11.018;2023-04-12T06:02:24;15.10;58.60
31675;DHT22;18276;45.520;11.018;2023-04-12T06:04:52;15.10;58.30
31675;DHT22;18276;45.520;11.018;2023-04-12T06:07:21;15.10;58.30
31675;DHT22;18276;45.520;11.018;2023-04-12T06:09:48;15.00;58.10
31675;DHT22;18276;45.520;11.018;2023-04-12T06:12:16;15.10;58.10
31675;DHT22;18276;45.520;11.018;2023-04-12T06:14:43;15.20;58.10
31675;DHT22;18276;45.520;11.018;2023-04-12T06:17:11;15.40;58.20
31675;DHT22;18276;45.520;11.018;2023-04-12T06:19:39;15.70;57.40
31675;DHT22;18276;45.520;11.018;2023-04-12T06:22:06;15.80;56.80
31675;DHT22;18276;45.520;11.018;2023-04-12T06:24:33;16.00;56.60
31675;DHT22;18276;45.520;11.018;2023-04-12T06:27:00;16.10;56.00
31675;DHT22;18276;45.520;11.018;2023-04-12T06:29:27;16.10;55.80
31675;DHT22;18276;45.520;11.018;2023-04-12T06:31:54;16.20;55.70
31675;DHT22;18276;45.520;11.018;2023-04-12T06:34:21;16.30;55.60
31675;DHT22;18276;45.520;11.018;2023-04-12T06:36:49;16.50;55.10
31675;DHT22;18276;45.520;11.018;2023-04-12T06:39:16;16.70;54.90
31675;DHT22;18276;45.520;11.018;2023-04-12T06:41:43;17.20;54.20
31675;DHT22;18276;45.520;11.018;2023-04-12T06:44:18;17.50;52.60
31675;DHT22;18276;45.520;11.018;2023-04-12T06:46:45;17.70;51.90
31675;DHT22;18276;45.520;11.018;2023-04-12T06:49:12;17.70;51.80
31675;DHT22;18276;45.520;11.018;2023-04-12T06:51:39;17.50;51.70
31675;DHT22;18276;45.520;11.018;2023-04-12T06:54:06;17.30;51.70
31675;DHT22;18276;45.520;11.018;2023-04-12T06:56:35;17.00;52.10
31675;DHT22;18276;45.520;11.018;2023-04-12T06:59:03;16.80;52.60
31675;DHT22;18276;45.520;11.018;2023-04-12T07:01:29;16.70;53.00
31675;DHT22;18276;45.520;11.018;2023-04-12T07:03:57;16.60;53.10
31675;DHT22;18276;45.520;11.018;2023-04-12T07:06:24;16.60;53.20
31675;DHT22;18276;45.520;11.018;2023-04-12T07:08:52;16.50;53.00
31675;DHT22;18276;45.520;11.018;2023-04-12T07:11:20;16.50;53.30
31675;DHT22;18276;45.520;11.018;2023-04-12T07:13:49;16.50;53.30
31675;DHT22;18276;45.520;11.018;2023-04-12T07:16:17;16.40;53.20
31675;DHT22;18276;45.520;11.018;2023-04-12T07:18:44;16.40;54.10
31675;DHT22;18276;45.520;11.018;2023-04-12T07:21:11;16.40;53.80
31675;DHT22;18276;45.520;11.018;2023-04-12T07:23:43;16.40;54.10
31675;DHT22;18276;45.520;11.018;2023-04-12T07:26:12;16.30;54.00
31675;DHT22;18276;45.520;11.018;2023-04-12T07:28:39;16.20;54.00
31675;DHT22;18276;45.520;11.018;2023-04-12T07:31:06;16.20;54.40
31675;DHT22;18276;45.520;11.018;2023-04-12T07:33:33;16.10;54.40
31675;DHT22;18276;45.520;11.018;2023-04-12T07:36:03;16.00;54.40
31675;DHT22;18276;45.520;11.018;2023-04-12T07:38:30;15.90;54.60
31675;DHT22;18276;45.520;11.018;2023-04-12T07:40:57;15.90;54.30
31675;DHT22;18276;45.520;11.018;2023-04-12T07:43:24;15.80;54.00
31675;DHT22;18276;45.520;11.018;2023-04-12T07:45:53;15.80;54.20
31675;DHT22;18276;45.520;11.018;2023-04-12T07:48:21;15.90;54.00
31675;DHT22;18276;45.520;11.018;2023-04-12T07:50:48;15.90;54.20
31675;DHT22;18276;45.520;11.018;2023-04-12T07:53:18;16.00;54.10
31675;DHT22;18276;45.520;11.018;2023-04-12T07:55:45;16.10;53.50
31675;DHT22;18276;45.520;11.018;2023-04-12T07:58:15;16.20;53.10
31675;DHT22;18276;45.520;11.018;2023-04-12T08:00:43;16.30;53.10
31675;DHT22;18276;45.520;11.018;2023-04-12T08:03:12;16.50;52.90
31675;DHT22;18276;45.520;11.018;2023-04-12T08:05:39;16.70;53.00
31675;DHT22;18276;45.520;11.018;2023-04-12T08:08:07;17.00;52.80
31675;DHT22;18276;45.520;11.018;2023-04-12T08:10:38;17.20;52.50
31675;DHT22;18276;45.520;11.018;2023-04-12T08:13:06;17.40;51.50
31675;DHT22;18276;45.520;11.018;2023-04-12T08:15:33;17.50;51.30
31675;DHT22;18276;45.520;11.018;2023-04-12T08:18:01;17.50;51.20
31675;DHT22;18276;45.520;11.018;2023-04-12T08:20:28;17.50;51.00
31675;DHT22;18276;45.520;11.018;2023-04-12T08:22:55;17.50;51.00
31675;DHT22;18276;45.520;11.018;2023-04-12T08:25:22;17.40;50.70
31675;DHT22;18276;45.520;11.018;2023-04-12T08:27:50;17.30;51.10
31675;DHT22;18276;45.520;11.018;2023-04-12T08:30:17;17.30;51.30
31675;DHT22;18276;45.520;11.018;2023-04-12T08:32:44;17.20;51.50
31675;DHT22;18276;45.520;11.018;2023-04-12T08:35:11;17.10;51.60
31675;DHT22;18276;45.520;11.018;2023-04-12T08:37:38;17.00;51.70
31675;DHT22;18276;45.520;11.018;2023-04-12T08:40:05;16.90;51.20
31675;DHT22;18276;45.520;11.018;2023-04-12T08:42:33;16.80;51.00
31675;DHT22;18276;45.520;11.018;2023-04-12T08:45:03;16.70;51.10
31675;DHT22;18276;45.520;11.018;2023-04-12T08:47:29;16.60;51.30
31675;DHT22;18276;45.520;11.018;2023-04-12T08:49:59;16.50;51.10
31675;DHT22;18276;45.520;11.018;2023-04-12T08:52:27;16.50;51.00
31675;DHT22;18276;45.520;11.018;2023-04-12T08:54:55;16.50;51.20
31675;DHT22;18276;45.520;11.018;2023-04-12T08:57:22;16.50;51.20
31675;DHT22;18276;45.520;11.018;2023-04-12T08:59:49;16.50;50.90
31675;DHT22;18276;45.520;11.018;2023-04-12T09:02:16;16.50;51.10
31675;DHT22;18276;45.520;11.018;2023-04-12T09:04:48;16.40;50.80
31675;DHT22;18276;45.520;11.018;2023-04-12T09:07:16;16.50;51.10
31675;DHT22;18276;45.520;11.018;2023-04-12T09:09:44;16.50;51.20
31675;DHT22;18276;45.520;11.018;2023-04-12T09:12:12;16.60;50.90
31675;DHT22;18276;45.520;11.018;2023-04-12T09:14:40;16.60;51.00
31675;DHT22;18276;45.520;11.018;2023-04-12T09:17:24;16.70;51.10
31675;DHT22;18276;45.520;11.018;2023-04-12T09:19:52;16.60;51.10
31675;DHT22;18276;45.520;11.018;2023-04-12T09:22:36;16.60;51.00
31675;DHT22;18276;45.520;11.018;2023-04-12T09:25:05;16.60;51.20
31675;DHT22;18276;45.520;11.018;2023-04-12T09:27:50;16.60;51.30
31675;DHT22;18276;45.520;11.018;2023-04-12T09:30:19;16.70;51.20
31675;DHT22;18276;45.520;11.018;2023-04-12T09:32:46;16.70;51.20
31675;DHT22;18276;45.520;11.018;2023-04-12T09:35:16;16.80;50.90
31675;DHT22;18276;45.520;11.018;2023-04-12T09:37:43;16.80;50.70
31675;DHT22;18276;45.520;11.018;2023-04-12T09:40:11;16.80;50.70
31675;DHT22;18276;45.520;11.018;2023-04-12T09:42:51;16.80;50.50
31675;DHT22;18276;45.520;11.018;2023-04-12T09:45:22;16.90;50.40
31675;DHT22;18276;45.520;11.018;2023-04-12T09:47:51;16.90;50.40
31675;DHT22;18276;45.520;11.018;2023-04-12T09:50:28;17.00;50.30
31675;DHT22;18276;45.520;11.018;2023-04-12T09:52:56;17.00;50.30
31675;DHT22;18276;45.520;11.018;2023-04-12T09:55:25;17.10;50.30
31675;DHT22;18276;45.520;11.018;2023-04-12T09:57:53;17.20;50.10
31675;DHT22;18276;45.520;11.018;2023-04-12T10:00:21;17.30;49.70
31675;DHT22;18276;45.520;11.018;2023-04-12T10:02:49;17.30;49.20
31675;DHT22;18276;45.520;11.018;2023-04-12T10:05:21;17.30;49.80
31675;DHT22;18276;45.520;11.018;2023-04-12T10:07:52;17.40;50.10
31675;DHT22;18276;45.520;11.018;2023-04-12T10:10:21;17.40;49.40
31675;DHT22;18276;45.520;11.018;2023-04-12T10:12:49;17.40;49.30
31675;DHT22;18276;45.520;11.018;2023-04-12T10:15:16;17.40;49.50
31675;DHT22;18276;45.520;11.018;2023-04-12T10:17:50;17.50;49.60
31675;DHT22;18276;45.520;11.018;2023-04-12T10:20:18;17.50;48.90
31675;DHT22;18276;45.520;11.018;2023-04-12T10:22:47;17.60;48.70
31675;DHT22;18276;45.520;11.018;2023-04-12T10:25:17;17.50;48.80
31675;DHT22;18276;45.520;11.018;2023-04-12T10:27:44;17.60;49.10
31675;DHT22;18276;45.520;11.018;2023-04-12T10:30:18;17.80;48.60
31675;DHT22;18276;45.520;11.018;2023-04-12T10:32:45;18.00;48.70
31675;DHT22;18276;45.520;11.018;2023-04-12T10:35:12;18.20;48.60
31675;DHT22;18276;45.520;11.018;2023-04-12T10:40:29;18.60;47.60
31675;DHT22;18276;45.520;11.018;2023-04-12T10:45:42;18.70;47.10
31675;DHT22;18276;45.520;11.018;2023-04-12T10:53:44;18.60;47.50
31675;DHT22;18276;45.520;11.018;2023-04-12T10:59:19;18.60;47.40
31675;DHT22;18276;45.520;11.018;2023-04-12T11:04:34;18.60;47.10
31675;DHT22;18276;45.520;11.018;2023-04-12T11:07:08;18.60;46.90
31675;DHT22;18276;45.520;11.018;2023-04-12T11:09:38;18.50;46.80
31675;DHT22;18276;45.520;11.018;2023-04-12T11:12:13;18.40;47.10
31675;DHT22;18276;45.520;11.018;2023-04-12T11:14:44;18.50;46.90
31675;DHT22;18276;45.520;11.018;2023-04-12T11:19:41;19.10;46.00
31675;DHT22;18276;45.520;11.018;2023-04-12T11:22:09;19.30;45.60
31675;DHT22;18276;45.520;11.018;2023-04-12T11:24:36;19.80;45.30
31675;DHT22;18276;45.520;11.018;2023-04-12T11:27:03;20.50;44.30
31675;DHT22;18276;45.520;11.018;2023-04-12T11:29:30;21.10;43.20
31675;DHT22;18276;45.520;11.018;2023-04-12T11:32:04;21.30;41.70
31675;DHT22;18276;45.520;11.018;2023-04-12T11:34:32;21.40;41.70
31675;DHT22;18276;45.520;11.018;2023-04-12T11:36:59;21.40;40.80
31675;DHT22;18276;45.520;11.018;2023-04-12T11:39:26;21.20;41.10
31675;DHT22;18276;45.520;11.018;2023-04-12T11:41:57;20.90;41.20
31675;DHT22;18276;45.520;11.018;2023-04-12T11:44:24;20.70;41.70
31675;DHT22;18276;45.520;11.018;2023-04-12T11:46:51;20.70;41.80
31675;DHT22;18276;45.520;11.018;2023-04-12T11:49:19;20.90;41.90
31675;DHT22;18276;45.520;11.018;2023-04-12T11:51:46;21.20;41.80
31675;DHT22;18276;45.520;11.018;2023-04-12T11:54:15;21.50;40.80
31675;DHT22;18276;45.520;11.018;2023-04-12T11:56:42;21.90;40.20
31675;DHT22;18276;45.520;11.018;2023-04-12T11:59:09;22.10;39.70
31675;DHT22;18276;45.520;11.018;2023-04-12T12:01:36;22.60;40.00
31675;DHT22;18276;45.520;11.018;2023-04-12T12:04:03;23.20;38.80
31675;DHT22;18276;45.520;11.018;2023-04-12T12:06:31;23.80;37.80
31675;DHT22;18276;45.520;11.018;2023-04-12T12:08:59;24.30;37.40
31675;DHT22;18276;45.520;11.018;2023-04-12T12:11:26;24.60;36.20
31675;DHT22;18276;45.520;11.018;2023-04-12T12:13:54;24.70;36.00
31675;DHT22;18276;45.520;11.018;2023-04-12T12:16:27;25.00;36.30
31675;DHT22;18276;45.520;11.018;2023-04-12T12:18:55;25.20;35.10
31675;DHT22;18276;45.520;11.018;2023-04-12T12:21:22;25.30;34.70
31675;DHT22;18276;45.520;11.018;2023-04-12T12:23:49;25.20;34.40
31675;DHT22;18276;45.520;11.018;2023-04-12T12:26:20;25.00;34.30
31675;DHT22;18276;45.520;11.018;2023-04-12T12:28:52;24.60;34.20
31675;DHT22;18276;45.520;11.018;2023-04-12T12:31:20;24.30;35.00
31675;DHT22;18276;45.520;11.018;2023-04-12T12:33:48;24.20;35.30
31675;DHT22;18276;45.520;11.018;2023-04-12T12:36:18;24.30;36.40
31675;DHT22;18276;45.520;11.018;2023-04-12T12:38:46;24.30;36.00
31675;DHT22;18276;45.520;11.018;2023-04-12T12:41:19;24.40;36.10
31675;DHT22;18276;45.520;11.018;2023-04-12T12:43:47;24.40;36.50
31675;DHT22;18276;45.520;11.018;2023-04-12T12:46:14;24.30;36.10
31675;DHT22;18276;45.520;11.018;2023-04-12T12:48:43;24.20;36.60
31675;DHT22;18276;45.520;11.018;2023-04-12T12:51:11;23.90;36.50
31675;DHT22;18276;45.520;11.018;2023-04-12T12:53:39;23.60;36.80
31675;DHT22;18276;45.520;11.018;2023-04-12T12:56:09;23.80;36.70
31675;DHT22;18276;45.520;11.018;2023-04-12T12:58:37;24.20;36.80
31675;DHT22;18276;45.520;11.018;2023-04-12T13:01:06;24.60;35.80
31675;DHT22;18276;45.520;11.018;2023-04-12T13:03:33;24.70;35.80
31675;DHT22;18276;45.520;11.018;2023-04-12T13:06:00;24.60;35.70
31675;DHT22;18276;45.520;11.018;2023-04-12T13:08:27;24.60;36.10
31675;DHT22;18276;45.520;11.018;2023-04-12T13:10:54;24.30;36.40
31675;DHT22;18276;45.520;11.018;2023-04-12T13:13:22;23.80;37.00
31675;DHT22;18276;45.520;11.018;2023-04-12T13:15:48;23.20;37.90
31675;DHT22;18276;45.520;11.018;2023-04-12T13:18:18;22.70;39.00
31675;DHT22;18276;45.520;11.018;2023-04-12T13:20:45;22.30;39.80
31675;DHT22;18276;45.520;11.018;2023-04-12T13:23:12;22.10;40.10
31675;DHT22;18276;45.520;11.018;2023-04-12T13:25:40;22.10;40.50
31675;DHT22;18276;45.520;11.018;2023-04-12T13:28:06;22.20;40.40
31675;DHT22;18276;45.520;11.018;2023-04-12T13:30:33;22.30;40.40
31675;DHT22;18276;45.520;11.018;2023-04-12T13:33:00;22.20;40.90
31675;DHT22;18276;45.520;11.018;2023-04-12T13:35:27;22.20;40.50
31675;DHT22;18276;45.520;11.018;2023-04-12T13:37:54;22.10;40.60
31675;DHT22;18276;45.520;11.018;2023-04-12T13:40:21;22.00;40.90
31675;DHT22;18276;45.520;11.018;2023-04-12T13:42:48;21.90;41.00
31675;DHT22;18276;45.520;11.018;2023-04-12T13:45:15;21.60;41.40
31675;DHT22;18276;45.520;11.018;2023-04-12T13:47:42;21.30;42.10
31675;DHT22;18276;45.520;11.018;2023-04-12T13:50:10;21.20;42.60
31675;DHT22;18276;45.520;11.018;2023-04-12T13:52:37;21.20;42.90
31675;DHT22;18276;45.520;11.018;2023-04-12T13:55:04;21.20;42.90
31675;DHT22;18276;45.520;11.018;2023-04-12T13:57:34;21.10;42.70
31675;DHT22;18276;45.520;11.018;2023-04-12T14:00:01;21.10;42.70
31675;DHT22;18276;45.520;11.018;2023-04-12T14:02:30;21.10;42.40
31675;DHT22;18276;45.520;11.018;2023-04-12T14:04:57;20.90;42.80
31675;DHT22;18276;45.520;11.018;2023-04-12T14:07:25;20.70;43.10
31675;DHT22;18276;45.520;11.018;2023-04-12T14:09:54;20.40;43.60
31675;DHT22;18276;45.520;11.018;2023-04-12T14:12:23;20.30;44.30
31675;DHT22;18276;45.520;11.018;2023-04-12T14:14:50;20.20;44.60
31675;DHT22;18276;45.520;11.018;2023-04-12T14:17:16;20.10;44.60
31675;DHT22;18276;45.520;11.018;2023-04-12T14:19:43;20.00;44.90
31675;DHT22;18276;45.520;11.018;2023-04-12T14:22:10;19.90;45.10
31675;DHT22;18276;45.520;11.018;2023-04-12T14:24:37;19.80;45.20
31675;DHT22;18276;45.520;11.018;2023-04-12T14:27:05;19.60;45.70
31675;DHT22;18276;45.520;11.018;2023-04-12T14:29:33;19.50;46.10
31675;DHT22;18276;45.520;11.018;2023-04-12T14:32:00;19.30;46.50
31675;DHT22;18276;45.520;11.018;2023-04-12T14:34:27;19.20;46.50
31675;DHT22;18276;45.520;11.018;2023-04-12T14:36:54;19.10;46.90
31675;DHT22;18276;45.520;11.018;2023-04-12T14:39:21;19.00;47.00
31675;DHT22;18276;45.520;11.018;2023-04-12T14:41:49;18.90;47.20
31675;DHT22;18276;45.520;11.018;2023-04-12T14:44:16;18.80;47.30
31675;DHT22;18276;45.520;11.018;2023-04-12T14:46:46;18.70;47.40
31675;DHT22;18276;45.520;11.018;2023-04-12T14:49:13;18.60;47.70
31675;DHT22;18276;45.520;11.018;2023-04-12T14:51:40;18.60;47.70
31675;DHT22;18276;45.520;11.018;2023-04-12T14:54:07;18.50;47.80
31675;DHT22;18276;45.520;11.018;2023-04-12T14:56:34;18.40;48.10
31675;DHT22;18276;45.520;11.018;2023-04-12T14:59:10;18.40;48.40
31675;DHT22;18276;45.520;11.018;2023-04-12T15:01:37;18.40;48.30
31675;DHT22;18276;45.520;11.018;2023-04-12T15:04:05;18.50;48.20
31675;DHT22;18276;45.520;11.018;2023-04-12T15:06:32;18.40;48.30
31675;DHT22;18276;45.520;11.018;2023-04-12T15:09:01;18.40;48.40
31675;DHT22;18276;45.520;11.018;2023-04-12T15:11:32;18.40;48.40
31675;DHT22;18276;45.520;11.018;2023-04-12T15:14:01;18.30;48.70
31675;DHT22;18276;45.520;11.018;2023-04-12T15:16:33;18.00;48.80
31675;DHT22;18276;45.520;11.018;2023-04-12T15:19:00;18.00;49.30
31675;DHT22;18276;45.520;11.018;2023-04-12T15:21:34;17.90;49.50
31675;DHT22;18276;45.520;11.018;2023-04-12T15:24:02;17.80;49.60
31675;DHT22;18276;45.520;11.018;2023-04-12T15:26:29;17.70;49.70
31675;DHT22;18276;45.520;11.018;2023-04-12T15:28:56;17.60;49.90
31675;DHT22;18276;45.520;11.018;2023-04-12T15:31:22;17.50;50.10
31675;DHT22;18276;45.520;11.018;2023-04-12T15:33:49;17.40;50.20
31675;DHT22;18276;45.520;11.018;2023-04-12T15:36:16;17.30;50.30
31675;DHT22;18276;45.520;11.018;2023-04-12T15:38:45;17.20;50.50
31675;DHT22;18276;45.520;11.018;2023-04-12T15:41:12;17.20;50.70
31675;DHT22;18276;45.520;11.018;2023-04-12T15:43:39;17.10;50.70
31675;DHT22;18276;45.520;11.018;2023-04-12T15:46:08;17.10;50.70
31675;DHT22;18276;45.520;11.018;2023-04-12T15:48:39;17.10;50.60